Buffalo, WY

5:16 PM MDT on May 05, 2015 (GMT -0600)
Johnson County | | Change Station
CLOSE
Current Station
Airport
Location: Buffalo,
Elevation: 4967 ft
Nearby Weather Stations
Active Advisory: Special Statement

Elev 4967 ft 44.38 °N, 106.72 °W | Updated 1 hour ago

Clear
Clear
68 °F
Feels Like 68 °F
N
10
Wind Variable Wind from SE
Gusts 17 mph

Today
High -- | Low -- °F
--% Chance of Precip.
Yesterday
High -- | Low -- °F
Precip. -- in
5:52 AM 8:15 PM
Waning Gibbous, 97% visible
Pressure 29.69 in
Visibility 10.0 miles
Clouds Clear
Dew Point 43 °F
Humidity 40%
Rainfall 0.00 in
Snow Depth Not available.
UV 7 out of 12
Pollen 9.50 out of 12
Air Quality Not available.
Flu Activity Sporadic
METAR KBYG 052153Z AUTO 14009G15KT 10SM CLR 20/06 A2979 RMK AO2 SLP052 T02000061

More Conditions Fewer Conditions

Pressure 29.69 in
Visibility 10.0 miles
Clouds Clear
Dew Point 43 °F
Humidity 40%
Rainfall 0.00 in
Snow Depth Not available.
UV 7 out of 12
Pollen 9.50 out of 12
Air Quality Not available.
Flu Activity Sporadic
METAR KBYG 052153Z AUTO 14009G15KT 10SM CLR 20/06 A2979 RMK AO2 SLP052 T02000061

More Conditions Fewer Conditions

10-Day Weather Forecast

Almanac

Astronomy

May. 05, 2015 Rise Set
Actual Time
Civil Twilight
Nautical Twilight
Astronomical Twilight
Moon
Length of Visible Light
Length of Day
Tomorrow will be .
, % of the Moon is Illuminated

Today's Extremes

State Highs State Lows

Community

WunderPhotos

Upload Photos

1,819,008 photos uploaded!

WunderBlogs® & News

Nearby

Air Quality

  Air Quality AQ Index Pollutant
Not available.

Snow Depth

Station Depth Elevation

Earthquake Activity

City Distance Mag. Time & Date
Minimum magnitude displayed is 2.5.

Coastal Water Temperatures

Place Temperature

Stations

Nearby Weather Stations

Station Location Temp. Windchill Dew Point Humidity Wind Precip. Elev Updated Type
                   
Special Statement
Statement as of 4:25 PM MDT on May 05, 2015

Scattered showers and isolated thunderstorms will continue to
develop over the mountains and slowly move off into the foothills.
Some storms east of The Divide will move faster and could make it
deeper into the basins. Expect the stronger storms to produce small
hail and brief heavy downpours. Any storm could produce dangerous
cloud to ground lightning and wind gusts over 30 mph into the
evening.



425 PM MDT Tue may 5 2015

Scattered showers and isolated thunderstorms will continue to
develop over the mountains and slowly move off into the foothills.
Some storms east of The Divide will move faster and could make it
deeper into the basins. Expect the stronger storms to produce small
hail and brief heavy downpours. Any storm could produce dangerous
cloud to ground lightning and wind gusts over 30 mph into the
evening.